KCRQKMYF

Guest
Details From KCRQ - Mc Clellan Palomar
To KMYF - Montgomery Fld
Flight Number -
Tags Routegen Generated
Created
Modified
Stats Distance 26 nm / 49 km
Max Altitude 100 ft / 30 m
Waypoints 5
Social Downloads 1
Likes 0
Share VATSIM

Download

Looking for another format? Having issues loading an existing format? Contact us
Advertisement - Login to hide

Notes

Departing runway 7 KCRQ. Arriving runway 11 KMYF.

Route

KCRQ +33.14_-117.19 +32.00_-117.20 +32.85_-117.22 KMYF

ID Type Via Altitude Latitude Longitude Leg Dist Tot Dist Heading (true) Name
O KCRQ APT - 0 ft / 0 m 33.12955˚ -117.27201˚ - 0 nm - -
+33.14_-117.19 LATLON - 100 ft / 30 m 33.14322˚ -117.18714˚ 4 nm 4 nm 79° / 79° -
+32.00_-117.20 LATLON - 100 ft / 30 m 32.99602˚ -117.20489˚ 8 nm 13 nm 186° / 186° -
+32.85_-117.22 LATLON - 100 ft / 30 m 32.84882˚ -117.22263˚ 8 nm 22 nm 186° / 186° -
O KMYF APT - 0 ft / 0 m 32.81814˚ -117.14463˚ 4 nm 26 nm 115° / 115° Montgomery Fld

Altitude Profile

Advertisement - Login to hide

KCRQ

Details ICAO KCRQ (CLD)
Name Mc Clellan Palomar
Region United States
Timezone America/Los_Angeles (UTC-8.0)
Stats Elevation 331 ft / 101 m (AMSL)
Location 33.128268° -117.279967°
Runways 1
Magnetic Variation 11.618° E

METAR

KCRQ 171453Z AUTO 04007G15KT 10SM CLR 14/M05 A2984 RMK AO2 SLP102 T01391050 52021

Decode

TAF

KCRQ 171139Z 1712/1812 05007KT P6SM FEW100 WS010/04025KT FM171800 VRB05KT P6SM SKC

Decode

Departure Runways

ID Width Length Bearing (true) Bearing (mag) Surface Threshold Offset Overrun Length
06 151 ft / 46 m 4,954 ft / 1,510 m 79.08° 67.46° Asphalt 299 ft / 91 m 200 ft / 61 m
24 151 ft / 46 m 4,954 ft / 1,510 m 259.09° 247.47° Asphalt 0 ft / 0 m 200 ft / 61 m

KMYF

Details ICAO KMYF
Name Montgomery Fld
Region United States
Timezone America/Los_Angeles (UTC-8.0)
Stats Elevation 427 ft / 130 m (AMSL)
Location 32.815737° -117.139705°
Runways 3
Magnetic Variation 11.529° E

METAR

KMYF 171453Z 05005KT 10SM CLR 10/03 A2985 RMK AO2 SLP105 T01000033 51021

Decode

TAF

Not found

Destination Runways

ID Width Length Bearing (true) Bearing (mag) Surface Threshold Offset Overrun Length
05 151 ft / 46 m 3,403 ft / 1,037 m 64.89° 53.36° Asphalt 390 ft / 119 m 0 ft / 0 m
10L 151 ft / 46 m 4,581 ft / 1,396 m 115.10° 103.57° Asphalt 0 ft / 0 m 0 ft / 0 m
10R 59 ft / 18 m 3,404 ft / 1,038 m 115.00° 103.47° Asphalt 0 ft / 0 m 0 ft / 0 m
23 151 ft / 46 m 3,403 ft / 1,037 m 244.89° 233.36° Asphalt 0 ft / 0 m 0 ft / 0 m
28L 59 ft / 18 m 3,404 ft / 1,038 m 295.00° 283.47° Asphalt 0 ft / 0 m 0 ft / 0 m
28R 151 ft / 46 m 4,581 ft / 1,396 m 295.10° 283.57° Asphalt 1,175 ft / 358 m 0 ft / 0 m

Approach Navaids

Runway Type Ident Frequency Range Bearing (true) Bearing (mag) Slope Elevation
28R Localiser IMYF 111.70 MHz 18 nm / 33 km 295.10° 283.57° - 411 ft / 125 m (AMSL)
28R Glidescope IMYF 111.70 MHz 10 nm / 19 km 295.10° 283.57° 3.00° 423 ft / 129 m (AMSL)
28R DME IMYF 111.70 MHz 18 nm / 33 km - - - 428 ft / 130 m (AMSL)